sensor_id;sensor_type;location;lat;lon;timestamp;P1;durP1;ratioP1;P2;durP2;ratioP2
63346;SDS011;49472;49.880;8.650;2023-02-28T00:00:22;11.30;;;10.60;;
63346;SDS011;49472;49.880;8.650;2023-02-28T00:02:48;11.70;;;10.80;;
63346;SDS011;49472;49.880;8.650;2023-02-28T00:05:16;11.30;;;10.60;;
63346;SDS011;49472;49.880;8.650;2023-02-28T00:07:43;11.87;;;11.07;;
63346;SDS011;49472;49.880;8.650;2023-02-28T00:10:09;11.70;;;10.90;;
63346;SDS011;49472;49.880;8.650;2023-02-28T00:12:38;12.43;;;11.57;;
63346;SDS011;49472;49.880;8.650;2023-02-28T00:15:07;11.67;;;10.90;;
63346;SDS011;49472;49.880;8.650;2023-02-28T00:17:34;11.87;;;11.07;;
63346;SDS011;49472;49.880;8.650;2023-02-28T00:20:00;11.67;;;10.90;;
63346;SDS011;49472;49.880;8.650;2023-02-28T00:22:37;12.20;;;11.40;;
63346;SDS011;49472;49.880;8.650;2023-02-28T00:25:03;11.63;;;11.00;;
63346;SDS011;49472;49.880;8.650;2023-02-28T00:27:29;11.30;;;10.70;;
63346;SDS011;49472;49.880;8.650;2023-02-28T00:29:55;11.50;;;10.80;;
63346;SDS011;49472;49.880;8.650;2023-02-28T00:32:20;12.07;;;11.17;;
63346;SDS011;49472;49.880;8.650;2023-02-28T00:34:45;12.03;;;11.30;;
63346;SDS011;49472;49.880;8.650;2023-02-28T00:37:11;11.83;;;11.13;;
63346;SDS011;49472;49.880;8.650;2023-02-28T00:39:37;11.47;;;10.80;;
63346;SDS011;49472;49.880;8.650;2023-02-28T00:42:03;11.83;;;11.03;;
63346;SDS011;49472;49.880;8.650;2023-02-28T00:44:30;12.20;;;11.30;;
63346;SDS011;49472;49.880;8.650;2023-02-28T00:46:56;11.73;;;10.90;;
63346;SDS011;49472;49.880;8.650;2023-02-28T00:49:21;12.10;;;11.27;;
63346;SDS011;49472;49.880;8.650;2023-02-28T00:51:48;11.50;;;10.60;;
63346;SDS011;49472;49.880;8.650;2023-02-28T00:54:14;11.87;;;11.17;;
63346;SDS011;49472;49.880;8.650;2023-02-28T00:56:39;12.97;;;12.03;;
63346;SDS011;49472;49.880;8.650;2023-02-28T00:59:05;11.10;;;10.20;;
63346;SDS011;49472;49.880;8.650;2023-02-28T01:01:30;11.40;;;10.70;;
63346;SDS011;49472;49.880;8.650;2023-02-28T01:03:55;11.60;;;10.90;;
63346;SDS011;49472;49.880;8.650;2023-02-28T01:06:21;11.23;;;10.43;;
63346;SDS011;49472;49.880;8.650;2023-02-28T01:08:46;12.00;;;11.00;;
63346;SDS011;49472;49.880;8.650;2023-02-28T01:11:12;12.23;;;11.27;;
63346;SDS011;49472;49.880;8.650;2023-02-28T01:13:39;11.30;;;10.60;;
63346;SDS011;49472;49.880;8.650;2023-02-28T01:16:05;12.03;;;11.33;;
63346;SDS011;49472;49.880;8.650;2023-02-28T01:18:31;11.83;;;11.03;;
63346;SDS011;49472;49.880;8.650;2023-02-28T01:20:56;11.27;;;10.40;;
63346;SDS011;49472;49.880;8.650;2023-02-28T01:23:22;11.70;;;10.87;;
63346;SDS011;49472;49.880;8.650;2023-02-28T01:25:49;12.77;;;11.80;;
63346;SDS011;49472;49.880;8.650;2023-02-28T01:28:15;12.70;;;11.70;;
63346;SDS011;49472;49.880;8.650;2023-02-28T01:30:40;12.97;;;11.67;;
63346;SDS011;49472;49.880;8.650;2023-02-28T01:33:05;12.00;;;11.20;;
63346;SDS011;49472;49.880;8.650;2023-02-28T01:35:34;12.07;;;11.17;;
63346;SDS011;49472;49.880;8.650;2023-02-28T01:38:00;11.73;;;10.93;;
63346;SDS011;49472;49.880;8.650;2023-02-28T01:40:26;12.23;;;11.30;;
63346;SDS011;49472;49.880;8.650;2023-02-28T01:42:51;12.27;;;11.30;;
63346;SDS011;49472;49.880;8.650;2023-02-28T01:47:54;13.00;;;12.10;;
63346;SDS011;49472;49.880;8.650;2023-02-28T01:50:23;13.20;;;12.00;;
63346;SDS011;49472;49.880;8.650;2023-02-28T01:52:51;13.47;;;12.30;;
63346;SDS011;49472;49.880;8.650;2023-02-28T01:55:19;12.03;;;10.87;;
63346;SDS011;49472;49.880;8.650;2023-02-28T01:57:51;11.97;;;11.27;;
63346;SDS011;49472;49.880;8.650;2023-02-28T02:00:20;13.77;;;12.67;;
63346;SDS011;49472;49.880;8.650;2023-02-28T02:02:50;12.47;;;11.47;;
63346;SDS011;49472;49.880;8.650;2023-02-28T02:05:21;14.27;;;12.83;;
63346;SDS011;49472;49.880;8.650;2023-02-28T02:07:50;13.07;;;12.07;;
63346;SDS011;49472;49.880;8.650;2023-02-28T02:10:20;14.40;;;13.03;;
63346;SDS011;49472;49.880;8.650;2023-02-28T02:19:11;13.80;;;12.80;;
63346;SDS011;49472;49.880;8.650;2023-02-28T02:25:04;12.77;;;11.87;;
63346;SDS011;49472;49.880;8.650;2023-02-28T02:33:10;12.97;;;11.97;;
63346;SDS011;49472;49.880;8.650;2023-02-28T02:35:45;12.53;;;11.73;;
63346;SDS011;49472;49.880;8.650;2023-02-28T02:38:38;13.33;;;12.37;;
63346;SDS011;49472;49.880;8.650;2023-02-28T02:44:16;13.73;;;12.60;;
63346;SDS011;49472;49.880;8.650;2023-02-28T02:46:48;12.67;;;11.83;;
63346;SDS011;49472;49.880;8.650;2023-02-28T02:49:25;12.40;;;11.60;;
63346;SDS011;49472;49.880;8.650;2023-02-28T02:51:53;13.67;;;12.30;;
63346;SDS011;49472;49.880;8.650;2023-02-28T02:54:22;12.20;;;11.50;;
63346;SDS011;49472;49.880;8.650;2023-02-28T02:56:53;13.57;;;12.57;;
63346;SDS011;49472;49.880;8.650;2023-02-28T02:59:23;13.13;;;11.67;;
63346;SDS011;49472;49.880;8.650;2023-02-28T03:01:50;13.47;;;12.27;;
63346;SDS011;49472;49.880;8.650;2023-02-28T03:04:19;13.10;;;12.20;;
63346;SDS011;49472;49.880;8.650;2023-02-28T03:06:47;12.27;;;11.50;;
63346;SDS011;49472;49.880;8.650;2023-02-28T03:09:12;12.70;;;11.90;;
63346;SDS011;49472;49.880;8.650;2023-02-28T03:11:38;13.37;;;12.23;;
63346;SDS011;49472;49.880;8.650;2023-02-28T03:14:09;12.40;;;11.60;;
63346;SDS011;49472;49.880;8.650;2023-02-28T03:22:31;12.27;;;11.17;;
63346;SDS011;49472;49.880;8.650;2023-02-28T03:27:45;11.70;;;10.93;;
63346;SDS011;49472;49.880;8.650;2023-02-28T03:30:38;12.70;;;11.83;;
63346;SDS011;49472;49.880;8.650;2023-02-28T03:33:15;12.37;;;11.47;;
63346;SDS011;49472;49.880;8.650;2023-02-28T03:35:48;13.03;;;12.23;;
63346;SDS011;49472;49.880;8.650;2023-02-28T03:38:20;12.90;;;11.93;;
63346;SDS011;49472;49.880;8.650;2023-02-28T03:40:55;12.63;;;11.83;;
63346;SDS011;49472;49.880;8.650;2023-02-28T03:43:29;14.20;;;12.87;;
63346;SDS011;49472;49.880;8.650;2023-02-28T03:45:59;13.10;;;12.00;;
63346;SDS011;49472;49.880;8.650;2023-02-28T03:48:32;13.03;;;12.07;;
63346;SDS011;49472;49.880;8.650;2023-02-28T03:51:04;13.93;;;12.97;;
63346;SDS011;49472;49.880;8.650;2023-02-28T03:53:36;13.90;;;12.93;;
63346;SDS011;49472;49.880;8.650;2023-02-28T03:56:07;13.67;;;12.77;;
63346;SDS011;49472;49.880;8.650;2023-02-28T03:58:42;13.57;;;12.50;;
63346;SDS011;49472;49.880;8.650;2023-02-28T04:01:55;12.40;;;11.63;;
63346;SDS011;49472;49.880;8.650;2023-02-28T04:04:03;13.00;;;12.10;;
63346;SDS011;49472;49.880;8.650;2023-02-28T04:06:30;12.73;;;11.73;;
63346;SDS011;49472;49.880;8.650;2023-02-28T04:08:57;13.30;;;12.50;;
63346;SDS011;49472;49.880;8.650;2023-02-28T04:11:24;13.83;;;12.83;;
63346;SDS011;49472;49.880;8.650;2023-02-28T04:13:57;13.20;;;12.30;;
63346;SDS011;49472;49.880;8.650;2023-02-28T04:16:22;14.80;;;13.60;;
63346;SDS011;49472;49.880;8.650;2023-02-28T04:18:47;13.70;;;12.50;;
63346;SDS011;49472;49.880;8.650;2023-02-28T04:21:13;13.50;;;12.40;;
63346;SDS011;49472;49.880;8.650;2023-02-28T04:23:38;13.13;;;12.23;;
63346;SDS011;49472;49.880;8.650;2023-02-28T04:26:04;13.50;;;12.50;;
63346;SDS011;49472;49.880;8.650;2023-02-28T04:28:30;13.60;;;12.50;;
63346;SDS011;49472;49.880;8.650;2023-02-28T04:30:57;13.37;;;12.00;;
63346;SDS011;49472;49.880;8.650;2023-02-28T04:33:24;15.17;;;13.87;;
63346;SDS011;49472;49.880;8.650;2023-02-28T04:36:02;13.80;;;12.77;;
63346;SDS011;49472;49.880;8.650;2023-02-28T04:38:33;13.73;;;12.63;;
63346;SDS011;49472;49.880;8.650;2023-02-28T04:41:00;14.00;;;13.00;;
63346;SDS011;49472;49.880;8.650;2023-02-28T04:43:26;14.00;;;12.90;;
63346;SDS011;49472;49.880;8.650;2023-02-28T04:45:52;12.63;;;11.83;;
63346;SDS011;49472;49.880;8.650;2023-02-28T04:48:21;13.73;;;12.83;;
63346;SDS011;49472;49.880;8.650;2023-02-28T04:50:46;13.60;;;12.67;;
63346;SDS011;49472;49.880;8.650;2023-02-28T04:53:12;14.40;;;13.00;;
63346;SDS011;49472;49.880;8.650;2023-02-28T04:55:37;13.50;;;12.63;;
63346;SDS011;49472;49.880;8.650;2023-02-28T04:58:05;13.43;;;12.63;;
63346;SDS011;49472;49.880;8.650;2023-02-28T05:00:30;15.20;;;13.77;;
63346;SDS011;49472;49.880;8.650;2023-02-28T05:02:55;13.57;;;12.67;;
63346;SDS011;49472;49.880;8.650;2023-02-28T05:05:21;14.07;;;13.07;;
63346;SDS011;49472;49.880;8.650;2023-02-28T05:07:46;14.00;;;13.00;;
63346;SDS011;49472;49.880;8.650;2023-02-28T05:10:11;14.17;;;13.00;;
63346;SDS011;49472;49.880;8.650;2023-02-28T05:12:37;14.37;;;13.30;;
63346;SDS011;49472;49.880;8.650;2023-02-28T05:15:03;14.30;;;13.40;;
63346;SDS011;49472;49.880;8.650;2023-02-28T05:17:29;14.97;;;13.83;;
63346;SDS011;49472;49.880;8.650;2023-02-28T05:19:55;15.00;;;13.70;;
63346;SDS011;49472;49.880;8.650;2023-02-28T05:22:20;13.33;;;12.43;;
63346;SDS011;49472;49.880;8.650;2023-02-28T05:24:46;14.30;;;13.30;;
63346;SDS011;49472;49.880;8.650;2023-02-28T05:27:11;13.33;;;12.53;;
63346;SDS011;49472;49.880;8.650;2023-02-28T05:29:36;12.77;;;12.07;;
63346;SDS011;49472;49.880;8.650;2023-02-28T05:32:08;13.77;;;12.77;;
63346;SDS011;49472;49.880;8.650;2023-02-28T05:34:37;14.60;;;13.30;;
63346;SDS011;49472;49.880;8.650;2023-02-28T05:37:03;14.70;;;13.53;;
63346;SDS011;49472;49.880;8.650;2023-02-28T05:39:29;14.57;;;13.43;;
63346;SDS011;49472;49.880;8.650;2023-02-28T05:41:55;14.60;;;13.50;;
63346;SDS011;49472;49.880;8.650;2023-02-28T05:44:20;13.70;;;12.60;;
63346;SDS011;49472;49.880;8.650;2023-02-28T05:46:45;13.90;;;12.90;;
63346;SDS011;49472;49.880;8.650;2023-02-28T05:49:11;13.00;;;12.20;;
63346;SDS011;49472;49.880;8.650;2023-02-28T05:51:36;14.37;;;13.40;;
63346;SDS011;49472;49.880;8.650;2023-02-28T05:54:04;13.83;;;12.83;;
63346;SDS011;49472;49.880;8.650;2023-02-28T05:56:30;13.27;;;12.37;;
63346;SDS011;49472;49.880;8.650;2023-02-28T05:58:55;14.00;;;13.00;;
63346;SDS011;49472;49.880;8.650;2023-02-28T06:01:22;13.93;;;13.03;;
63346;SDS011;49472;49.880;8.650;2023-02-28T06:03:55;13.73;;;12.63;;
63346;SDS011;49472;49.880;8.650;2023-02-28T06:06:20;13.70;;;12.80;;
63346;SDS011;49472;49.880;8.650;2023-02-28T06:08:45;13.27;;;12.17;;
63346;SDS011;49472;49.880;8.650;2023-02-28T06:11:11;13.43;;;12.53;;
63346;SDS011;49472;49.880;8.650;2023-02-28T06:13:37;13.93;;;12.80;;
63346;SDS011;49472;49.880;8.650;2023-02-28T06:16:02;13.70;;;12.70;;
63346;SDS011;49472;49.880;8.650;2023-02-28T06:18:28;13.53;;;12.60;;
63346;SDS011;49472;49.880;8.650;2023-02-28T06:20:53;13.17;;;12.30;;
63346;SDS011;49472;49.880;8.650;2023-02-28T06:23:20;13.40;;;12.40;;
63346;SDS011;49472;49.880;8.650;2023-02-28T06:25:46;13.90;;;12.90;;
63346;SDS011;49472;49.880;8.650;2023-02-28T06:28:12;13.20;;;12.30;;
63346;SDS011;49472;49.880;8.650;2023-02-28T06:30:37;13.80;;;12.80;;
63346;SDS011;49472;49.880;8.650;2023-02-28T06:33:03;13.77;;;12.70;;
63346;SDS011;49472;49.880;8.650;2023-02-28T06:35:28;13.20;;;12.23;;
63346;SDS011;49472;49.880;8.650;2023-02-28T06:37:54;15.17;;;14.00;;
63346;SDS011;49472;49.880;8.650;2023-02-28T06:40:19;14.13;;;13.03;;
63346;SDS011;49472;49.880;8.650;2023-02-28T06:42:45;13.50;;;12.60;;
63346;SDS011;49472;49.880;8.650;2023-02-28T06:45:10;13.80;;;12.87;;
63346;SDS011;49472;49.880;8.650;2023-02-28T06:47:37;16.00;;;14.50;;
63346;SDS011;49472;49.880;8.650;2023-02-28T06:50:03;13.73;;;12.83;;
63346;SDS011;49472;49.880;8.650;2023-02-28T06:52:29;13.93;;;13.03;;
63346;SDS011;49472;49.880;8.650;2023-02-28T06:54:55;14.27;;;13.33;;
63346;SDS011;49472;49.880;8.650;2023-02-28T06:57:25;15.60;;;14.40;;
63346;SDS011;49472;49.880;8.650;2023-02-28T06:59:58;14.27;;;13.27;;
63346;SDS011;49472;49.880;8.650;2023-02-28T07:02:24;16.33;;;15.20;;
63346;SDS011;49472;49.880;8.650;2023-02-28T07:04:50;14.93;;;13.73;;
63346;SDS011;49472;49.880;8.650;2023-02-28T07:07:15;15.50;;;14.30;;
63346;SDS011;49472;49.880;8.650;2023-02-28T07:09:40;17.30;;;15.83;;
63346;SDS011;49472;49.880;8.650;2023-02-28T07:12:05;15.13;;;13.90;;
63346;SDS011;49472;49.880;8.650;2023-02-28T07:14:31;14.50;;;13.20;;
63346;SDS011;49472;49.880;8.650;2023-02-28T07:16:56;14.40;;;13.40;;
63346;SDS011;49472;49.880;8.650;2023-02-28T07:19:22;15.50;;;14.40;;
63346;SDS011;49472;49.880;8.650;2023-02-28T07:21:47;14.77;;;13.70;;
63346;SDS011;49472;49.880;8.650;2023-02-28T07:24:12;14.47;;;13.40;;
63346;SDS011;49472;49.880;8.650;2023-02-28T07:26:40;14.03;;;13.00;;
63346;SDS011;49472;49.880;8.650;2023-02-28T07:29:05;15.53;;;14.33;;
63346;SDS011;49472;49.880;8.650;2023-02-28T07:31:31;14.30;;;13.40;;
63346;SDS011;49472;49.880;8.650;2023-02-28T07:33:56;14.43;;;13.43;;
63346;SDS011;49472;49.880;8.650;2023-02-28T07:36:21;14.60;;;13.30;;
63346;SDS011;49472;49.880;8.650;2023-02-28T07:38:47;14.77;;;13.77;;
63346;SDS011;49472;49.880;8.650;2023-02-28T07:41:18;13.60;;;12.80;;
63346;SDS011;49472;49.880;8.650;2023-02-28T07:43:46;14.20;;;13.40;;
63346;SDS011;49472;49.880;8.650;2023-02-28T07:46:13;15.10;;;14.00;;
63346;SDS011;49472;49.880;8.650;2023-02-28T07:48:40;19.77;;;17.77;;
63346;SDS011;49472;49.880;8.650;2023-02-28T07:51:06;14.20;;;13.20;;
63346;SDS011;49472;49.880;8.650;2023-02-28T07:53:31;14.97;;;13.60;;
63346;SDS011;49472;49.880;8.650;2023-02-28T07:55:57;14.13;;;13.20;;
63346;SDS011;49472;49.880;8.650;2023-02-28T07:58:24;13.73;;;12.83;;
63346;SDS011;49472;49.880;8.650;2023-02-28T08:00:50;13.80;;;12.83;;
63346;SDS011;49472;49.880;8.650;2023-02-28T08:03:19;14.83;;;13.73;;
63346;SDS011;49472;49.880;8.650;2023-02-28T08:05:46;14.20;;;13.30;;
63346;SDS011;49472;49.880;8.650;2023-02-28T08:08:12;14.77;;;13.40;;
63346;SDS011;49472;49.880;8.650;2023-02-28T08:10:39;14.90;;;13.80;;
63346;SDS011;49472;49.880;8.650;2023-02-28T08:13:04;15.10;;;14.00;;
63346;SDS011;49472;49.880;8.650;2023-02-28T08:15:30;13.43;;;12.50;;
63346;SDS011;49472;49.880;8.650;2023-02-28T08:17:55;14.63;;;13.63;;
63346;SDS011;49472;49.880;8.650;2023-02-28T08:20:21;15.03;;;13.97;;
63346;SDS011;49472;49.880;8.650;2023-02-28T08:22:48;14.43;;;13.43;;
63346;SDS011;49472;49.880;8.650;2023-02-28T08:25:13;14.30;;;13.40;;
63346;SDS011;49472;49.880;8.650;2023-02-28T08:27:39;14.57;;;13.47;;
63346;SDS011;49472;49.880;8.650;2023-02-28T08:30:04;15.83;;;14.73;;
63346;SDS011;49472;49.880;8.650;2023-02-28T08:32:31;14.90;;;13.63;;
63346;SDS011;49472;49.880;8.650;2023-02-28T08:34:58;15.67;;;14.47;;
63346;SDS011;49472;49.880;8.650;2023-02-28T08:37:23;15.90;;;14.70;;
63346;SDS011;49472;49.880;8.650;2023-02-28T08:39:49;16.17;;;14.37;;
63346;SDS011;49472;49.880;8.650;2023-02-28T08:42:14;15.57;;;13.77;;
63346;SDS011;49472;49.880;8.650;2023-02-28T08:44:39;15.23;;;14.13;;
63346;SDS011;49472;49.880;8.650;2023-02-28T08:47:05;15.77;;;14.33;;
63346;SDS011;49472;49.880;8.650;2023-02-28T08:49:30;15.20;;;13.93;;
63346;SDS011;49472;49.880;8.650;2023-02-28T08:51:56;15.10;;;13.90;;
63346;SDS011;49472;49.880;8.650;2023-02-28T08:54:22;16.87;;;15.10;;
63346;SDS011;49472;49.880;8.650;2023-02-28T08:56:47;16.47;;;15.10;;
63346;SDS011;49472;49.880;8.650;2023-02-28T08:59:13;16.07;;;14.97;;
63346;SDS011;49472;49.880;8.650;2023-02-28T09:01:38;15.93;;;14.60;;
63346;SDS011;49472;49.880;8.650;2023-02-28T09:04:06;15.17;;;14.17;;
63346;SDS011;49472;49.880;8.650;2023-02-28T09:06:33;16.97;;;15.50;;
63346;SDS011;49472;49.880;8.650;2023-02-28T09:08:59;16.93;;;15.67;;
63346;SDS011;49472;49.880;8.650;2023-02-28T09:11:26;16.07;;;14.87;;
63346;SDS011;49472;49.880;8.650;2023-02-28T09:13:52;17.23;;;15.90;;
63346;SDS011;49472;49.880;8.650;2023-02-28T09:16:17;16.77;;;15.57;;
63346;SDS011;49472;49.880;8.650;2023-02-28T09:18:43;17.80;;;16.40;;
63346;SDS011;49472;49.880;8.650;2023-02-28T09:21:11;16.00;;;14.87;;
63346;SDS011;49472;49.880;8.650;2023-02-28T09:23:39;18.10;;;16.60;;
63346;SDS011;49472;49.880;8.650;2023-02-28T09:26:13;16.93;;;15.67;;
63346;SDS011;49472;49.880;8.650;2023-02-28T09:28:42;17.20;;;15.90;;
63346;SDS011;49472;49.880;8.650;2023-02-28T09:31:12;17.37;;;16.07;;
63346;SDS011;49472;49.880;8.650;2023-02-28T09:33:39;18.00;;;16.40;;
63346;SDS011;49472;49.880;8.650;2023-02-28T09:36:04;17.37;;;15.83;;
63346;SDS011;49472;49.880;8.650;2023-02-28T09:38:30;18.40;;;16.43;;
63346;SDS011;49472;49.880;8.650;2023-02-28T09:40:57;17.60;;;16.00;;
63346;SDS011;49472;49.880;8.650;2023-02-28T09:43:25;18.77;;;17.17;;
63346;SDS011;49472;49.880;8.650;2023-02-28T09:45:59;16.40;;;15.20;;
63346;SDS011;49472;49.880;8.650;2023-02-28T09:48:32;18.53;;;16.93;;
63346;SDS011;49472;49.880;8.650;2023-02-28T09:51:03;18.07;;;16.37;;
63346;SDS011;49472;49.880;8.650;2023-02-28T09:53:31;19.80;;;17.97;;
63346;SDS011;49472;49.880;8.650;2023-02-28T09:56:11;19.70;;;17.93;;
63346;SDS011;49472;49.880;8.650;2023-02-28T10:01:10;18.83;;;17.33;;
63346;SDS011;49472;49.880;8.650;2023-02-28T10:03:47;19.93;;;18.13;;
63346;SDS011;49472;49.880;8.650;2023-02-28T10:06:29;19.23;;;17.53;;
63346;SDS011;49472;49.880;8.650;2023-02-28T10:11:39;18.77;;;17.17;;
63346;SDS011;49472;49.880;8.650;2023-02-28T10:14:18;19.57;;;18.07;;
63346;SDS011;49472;49.880;8.650;2023-02-28T10:19:40;19.87;;;18.17;;
63346;SDS011;49472;49.880;8.650;2023-02-28T10:22:15;20.00;;;18.07;;
63346;SDS011;49472;49.880;8.650;2023-02-28T10:24:46;19.80;;;18.13;;
63346;SDS011;49472;49.880;8.650;2023-02-28T10:27:20;19.90;;;17.43;;
63346;SDS011;49472;49.880;8.650;2023-02-28T10:29:49;19.73;;;17.83;;
63346;SDS011;49472;49.880;8.650;2023-02-28T10:32:25;18.50;;;17.10;;
63346;SDS011;49472;49.880;8.650;2023-02-28T10:37:40;26.20;;;18.70;;
63346;SDS011;49472;49.880;8.650;2023-02-28T10:40:25;19.30;;;17.40;;
63346;SDS011;49472;49.880;8.650;2023-02-28T10:42:56;19.27;;;17.20;;
63346;SDS011;49472;49.880;8.650;2023-02-28T10:45:21;19.40;;;17.83;;
63346;SDS011;49472;49.880;8.650;2023-02-28T10:55:35;18.73;;;17.20;;
63346;SDS011;49472;49.880;8.650;2023-02-28T10:58:00;20.03;;;18.37;;
63346;SDS011;49472;49.880;8.650;2023-02-28T11:00:25;19.87;;;18.20;;
63346;SDS011;49472;49.880;8.650;2023-02-28T11:02:58;19.20;;;17.60;;
63346;SDS011;49472;49.880;8.650;2023-02-28T11:05:25;19.80;;;18.20;;
63346;SDS011;49472;49.880;8.650;2023-02-28T11:08:12;20.60;;;18.97;;
63346;SDS011;49472;49.880;8.650;2023-02-28T11:10:43;19.87;;;18.30;;
63346;SDS011;49472;49.880;8.650;2023-02-28T11:13:19;19.57;;;18.10;;
63346;SDS011;49472;49.880;8.650;2023-02-28T11:15:53;19.37;;;17.87;;
63346;SDS011;49472;49.880;8.650;2023-02-28T11:20:58;20.60;;;18.60;;
63346;SDS011;49472;49.880;8.650;2023-02-28T11:23:27;21.30;;;19.40;;
63346;SDS011;49472;49.880;8.650;2023-02-28T11:25:57;19.87;;;17.93;;
63346;SDS011;49472;49.880;8.650;2023-02-28T11:28:28;19.43;;;17.83;;
63346;SDS011;49472;49.880;8.650;2023-02-28T11:31:08;19.77;;;18.17;;
63346;SDS011;49472;49.880;8.650;2023-02-28T11:33:51;20.20;;;18.50;;
63346;SDS011;49472;49.880;8.650;2023-02-28T11:36:19;19.37;;;17.80;;
63346;SDS011;49472;49.880;8.650;2023-02-28T11:38:50;19.03;;;17.53;;
63346;SDS011;49472;49.880;8.650;2023-02-28T11:50:01;19.77;;;18.10;;
63346;SDS011;49472;49.880;8.650;2023-02-28T11:52:44;20.43;;;18.70;;
63346;SDS011;49472;49.880;8.650;2023-02-28T11:55:35;20.10;;;18.40;;
63346;SDS011;49472;49.880;8.650;2023-02-28T11:58:15;20.50;;;18.70;;
63346;SDS011;49472;49.880;8.650;2023-02-28T12:01:13;19.60;;;18.10;;
63346;SDS011;49472;49.880;8.650;2023-02-28T12:12:00;19.67;;;18.07;;
63346;SDS011;49472;49.880;8.650;2023-02-28T12:20:16;19.03;;;17.53;;
63346;SDS011;49472;49.880;8.650;2023-02-28T12:22:53;19.50;;;18.00;;
63346;SDS011;49472;49.880;8.650;2023-02-28T12:28:09;19.50;;;18.00;;
63346;SDS011;49472;49.880;8.650;2023-02-28T12:30:38;18.90;;;17.60;;
63346;SDS011;49472;49.880;8.650;2023-02-28T12:33:12;20.10;;;18.40;;
63346;SDS011;49472;49.880;8.650;2023-02-28T12:35:44;18.47;;;17.17;;
63346;SDS011;49472;49.880;8.650;2023-02-28T12:38:17;20.97;;;19.27;;
63346;SDS011;49472;49.880;8.650;2023-02-28T12:40:48;21.80;;;19.80;;
63346;SDS011;49472;49.880;8.650;2023-02-28T12:43:19;19.63;;;18.23;;
63346;SDS011;49472;49.880;8.650;2023-02-28T12:48:42;21.47;;;19.60;;
63346;SDS011;49472;49.880;8.650;2023-02-28T12:51:11;20.60;;;19.07;;
63346;SDS011;49472;49.880;8.650;2023-02-28T12:59:17;23.73;;;19.37;;
63346;SDS011;49472;49.880;8.650;2023-02-28T13:02:02;20.07;;;18.47;;
63346;SDS011;49472;49.880;8.650;2023-02-28T13:07:36;22.10;;;20.20;;
63346;SDS011;49472;49.880;8.650;2023-02-28T13:10:17;20.67;;;19.07;;
63346;SDS011;49472;49.880;8.650;2023-02-28T13:12:47;21.07;;;19.37;;
63346;SDS011;49472;49.880;8.650;2023-02-28T13:17:53;20.57;;;18.87;;
63346;SDS011;49472;49.880;8.650;2023-02-28T13:20:33;20.03;;;18.53;;
63346;SDS011;49472;49.880;8.650;2023-02-28T13:23:01;19.80;;;18.30;;
63346;SDS011;49472;49.880;8.650;2023-02-28T13:27:58;20.20;;;18.53;;
63346;SDS011;49472;49.880;8.650;2023-02-28T13:38:49;18.90;;;17.50;;
63346;SDS011;49472;49.880;8.650;2023-02-28T13:46:26;20.27;;;18.47;;
63346;SDS011;49472;49.880;8.650;2023-02-28T13:48:52;19.63;;;18.10;;
63346;SDS011;49472;49.880;8.650;2023-02-28T13:51:28;19.07;;;17.47;;
63346;SDS011;49472;49.880;8.650;2023-02-28T13:54:29;20.17;;;18.43;;
63346;SDS011;49472;49.880;8.650;2023-02-28T13:59:51;19.07;;;17.57;;
63346;SDS011;49472;49.880;8.650;2023-02-28T14:02:36;20.40;;;18.83;;
63346;SDS011;49472;49.880;8.650;2023-02-28T14:05:14;21.67;;;19.57;;
63346;SDS011;49472;49.880;8.650;2023-02-28T14:07:46;19.07;;;17.67;;
63346;SDS011;49472;49.880;8.650;2023-02-28T14:10:25;20.43;;;17.83;;
63346;SDS011;49472;49.880;8.650;2023-02-28T14:15:57;19.13;;;17.67;;
63346;SDS011;49472;49.880;8.650;2023-02-28T14:18:30;19.40;;;17.97;;
63346;SDS011;49472;49.880;8.650;2023-02-28T14:21:21;18.87;;;17.50;;
63346;SDS011;49472;49.880;8.650;2023-02-28T14:37:38;19.13;;;17.63;;
63346;SDS011;49472;49.880;8.650;2023-02-28T14:40:16;19.20;;;17.77;;
63346;SDS011;49472;49.880;8.650;2023-02-28T14:42:47;19.30;;;17.90;;
63346;SDS011;49472;49.880;8.650;2023-02-28T14:45:20;17.83;;;16.43;;
63346;SDS011;49472;49.880;8.650;2023-02-28T14:47:47;18.50;;;17.10;;
63346;SDS011;49472;49.880;8.650;2023-02-28T14:50:18;18.70;;;17.10;;
63346;SDS011;49472;49.880;8.650;2023-02-28T14:52:46;18.10;;;16.70;;
63346;SDS011;49472;49.880;8.650;2023-02-28T14:55:14;23.50;;;16.87;;
63346;SDS011;49472;49.880;8.650;2023-02-28T14:57:53;19.07;;;17.57;;
63346;SDS011;49472;49.880;8.650;2023-02-28T15:00:27;18.30;;;16.53;;
63346;SDS011;49472;49.880;8.650;2023-02-28T15:02:55;18.17;;;16.87;;
63346;SDS011;49472;49.880;8.650;2023-02-28T15:05:29;19.80;;;16.43;;
63346;SDS011;49472;49.880;8.650;2023-02-28T15:10:29;19.27;;;17.50;;
63346;SDS011;49472;49.880;8.650;2023-02-28T15:12:57;18.60;;;17.00;;
63346;SDS011;49472;49.880;8.650;2023-02-28T15:15:26;17.87;;;16.03;;
63346;SDS011;49472;49.880;8.650;2023-02-28T15:18:07;19.13;;;17.50;;
63346;SDS011;49472;49.880;8.650;2023-02-28T15:20:35;18.37;;;16.80;;
63346;SDS011;49472;49.880;8.650;2023-02-28T15:23:04;18.70;;;17.10;;
63346;SDS011;49472;49.880;8.650;2023-02-28T15:25:29;19.93;;;18.33;;
63346;SDS011;49472;49.880;8.650;2023-02-28T15:27:56;19.33;;;17.77;;
63346;SDS011;49472;49.880;8.650;2023-02-28T15:30:24;20.47;;;18.77;;
63346;SDS011;49472;49.880;8.650;2023-02-28T15:33:06;19.83;;;18.20;;
63346;SDS011;49472;49.880;8.650;2023-02-28T15:35:46;19.80;;;18.20;;
63346;SDS011;49472;49.880;8.650;2023-02-28T15:38:25;20.07;;;18.20;;
63346;SDS011;49472;49.880;8.650;2023-02-28T15:40:53;19.77;;;18.23;;
63346;SDS011;49472;49.880;8.650;2023-02-28T15:45:51;18.97;;;17.47;;
63346;SDS011;49472;49.880;8.650;2023-02-28T15:48:28;19.33;;;17.73;;
63346;SDS011;49472;49.880;8.650;2023-02-28T15:50:56;19.77;;;18.03;;
63346;SDS011;49472;49.880;8.650;2023-02-28T15:53:30;19.60;;;18.00;;
63346;SDS011;49472;49.880;8.650;2023-02-28T15:55:59;20.40;;;18.50;;
63346;SDS011;49472;49.880;8.650;2023-02-28T15:58:27;20.77;;;18.87;;
63346;SDS011;49472;49.880;8.650;2023-02-28T16:01:00;19.97;;;17.87;;
63346;SDS011;49472;49.880;8.650;2023-02-28T16:03:44;20.17;;;18.47;;
63346;SDS011;49472;49.880;8.650;2023-02-28T16:08:41;19.83;;;18.10;;
63346;SDS011;49472;49.880;8.650;2023-02-28T16:11:08;19.67;;;18.07;;
63346;SDS011;49472;49.880;8.650;2023-02-28T16:13:34;20.07;;;18.20;;
63346;SDS011;49472;49.880;8.650;2023-02-28T16:16:00;19.83;;;18.03;;
63346;SDS011;49472;49.880;8.650;2023-02-28T16:18:26;19.47;;;17.87;;
63346;SDS011;49472;49.880;8.650;2023-02-28T16:20:51;18.43;;;16.80;;
63346;SDS011;49472;49.880;8.650;2023-02-28T16:23:17;18.33;;;16.67;;
63346;SDS011;49472;49.880;8.650;2023-02-28T16:25:42;20.27;;;18.13;;
63346;SDS011;49472;49.880;8.650;2023-02-28T16:28:21;18.90;;;17.37;;
63346;SDS011;49472;49.880;8.650;2023-02-28T16:30:56;19.83;;;18.03;;
63346;SDS011;49472;49.880;8.650;2023-02-28T16:33:21;19.90;;;18.10;;
63346;SDS011;49472;49.880;8.650;2023-02-28T16:35:46;18.53;;;17.13;;
63346;SDS011;49472;49.880;8.650;2023-02-28T16:38:12;18.63;;;17.10;;
63346;SDS011;49472;49.880;8.650;2023-02-28T16:40:40;19.60;;;17.90;;
63346;SDS011;49472;49.880;8.650;2023-02-28T16:43:18;20.10;;;18.30;;
63346;SDS011;49472;49.880;8.650;2023-02-28T16:45:47;19.67;;;17.87;;